• Join FlightAware (Why Join?)
  • Login
  • US Flag 
06:20AM EDT


 

Airport Tracker/Info


-or-


 

Live Flight TrackerFlight Track Log ✈ EGF2733 ✈ 26-Apr-2012 ✈ KDFW - KGPT

Flight Track Log - Related Links

Times and Time Zones

All times are in EDT time to prevent confusion due to time zone crossing. See the EGF2733 flight status page for this flight to view local times or setup timezone preferences in your user account.

Time Position Orientation Groundspeed Altitude Reporting Facility
EDT Latitude Longitude Course Direction KTS MPH feet Rate Location/Type
09:37PM 32.8691 -97.0320 137° Southeast  Level FlightAware Approximate
09:38PM 32.8675 -97.0303 180° South 167 192 1,800  Level FAA TRACON SMA TRACON (SMA)
09:38PM 32.8336 -97.0303 180° South 179 206 3,400 2,040 Climbing FAA TRACON SMA TRACON (SMA)
09:39PM 32.7964 -97.0300 180° South 220 253 4,600 1,920 Climbing FAA TRACON SMA TRACON (SMA)
09:40PM 32.7475 -97.0303 156° South 256 295 5,900 1,800 Climbing FAA TRACON SMA TRACON (SMA)
09:40PM 32.7022 -97.0061 108° East 286 329 7,100 1,680 Climbing FAA TRACON SMA TRACON (SMA)
09:41PM 32.6869 -96.9492 88° East 297 342 8,200 1,800 Climbing FAA TRACON SMA TRACON (SMA)
09:42PM 32.6889 -96.8806 84° East 302 348 9,500 1,560 Climbing FAA TRACON SMA TRACON (SMA)
09:42PM 32.6950 -96.8094 81° East 314 361 10,300 780 Climbing FAA TRACON SMA TRACON (SMA)
09:43PM 32.7042 -96.7411 80° East 341 392 10,600 600 Climbing FAA TRACON SMA TRACON (SMA)
09:44PM 32.7167 -96.6594 81° East 366 421 11,100 780 Climbing FAA TRACON SMA TRACON (SMA)
09:44PM 32.7281 -96.5744 80° East 379 436 11,700 1,080 Climbing FAA TRACON SMA TRACON (SMA)
09:45PM 32.7392 -96.4992 80° East 377 434 12,600 1,500 Climbing FAA TRACON SMA TRACON (SMA)
09:46PM 32.7544 -96.3958 82° East 374 430 13,900 1,620 Climbing FAA TRACON SMA TRACON (SMA)
09:46PM 32.7625 -96.3306 97° East 372 428 14,800 1,500 Climbing FAA TRACON SMA TRACON (SMA)
09:47PM 32.7544 -96.2561 101° East 372 428 15,700 1,500 Climbing FAA TRACON SMA TRACON (SMA)
09:48PM 32.7403 -96.1731 100° East 372 428 16,800 1,500 Climbing FAA TRACON SMA TRACON (SMA)
09:48PM 32.7281 -96.0894 99° East 372 428 17,800 1,620 Climbing FAA TRACON SMA TRACON (SMA)
09:49PM 32.7183 -96.0139 100° East 374 430 19,000 1,680 Climbing FAA TRACON SMA TRACON (SMA)
09:50PM 32.7058 -95.9289 105° East 378 435 20,100 1,440 Climbing FAA TRACON SMA TRACON (SMA)
09:51PM 32.6769 -95.8042 101° East 375 432 21,700 1,440 Climbing Fort Worth Center
09:52PM 32.6542 -95.6639 84° East 380 437 23,200 1,500 Climbing Fort Worth Center
09:53PM 32.6650 -95.5356 84° East 386 444 24,700 1,500 Climbing Fort Worth Center
09:54PM 32.6756 -95.4119 83° East 381 438 26,300 1,380 Climbing Fort Worth Center
09:55PM 32.6864 -95.3006 90° East 387 445 27,500 1,440 Climbing Fort Worth Center
09:56PM 32.6861 -95.1647 86° East 387 445 29,200 1,440 Climbing Fort Worth Center
09:57PM 32.6942 -95.0411 85° East 382 440 30,400 1,140 Climbing Fort Worth Center
09:58PM 32.7042 -94.9150 88° East 382 440 31,500 1,080 Climbing Fort Worth Center
09:59PM 32.7081 -94.7889 110° East 382 440 32,600 1,020 Climbing Fort Worth Center
10:00PM 32.6697 -94.6617 114° Southeast 394 453 33,600 960 Climbing Fort Worth Center
10:01PM 32.6231 -94.5375 114° Southeast 394 453 34,600 960 Climbing Fort Worth Center
10:02PM 32.5808 -94.4253 113° Southeast 411 473 35,600 840 Climbing Fort Worth Center
10:03PM 32.5361 -94.3011 114° Southeast 416 479 36,300 600 Climbing Fort Worth Center
10:04PM 32.4892 -94.1772 115° Southeast 416 479 36,800 300 Climbing Fort Worth Center
10:05PM 32.4378 -94.0486 113° Southeast 416 479 37,000 60 Climbing Fort Worth Center
10:06PM 32.3881 -93.9103 114° Southeast 428 493 37,000  Level Fort Worth Center
10:07PM 32.3339 -93.7697 115° Southeast 448 516 37,000  Level Fort Worth Center
10:09PM 32.2000 -93.4239 115° Southeast 491 565 37,000  Level Houston Center
10:10PM 32.1414 -93.2733 115° Southeast 491 565 37,000  Level Houston Center
10:11PM 32.0847 -93.1281 115° Southeast 491 565 37,000  Level Houston Center
10:12PM 32.0258 -92.9778 115° Southeast 491 565 37,000  Level Houston Center
10:13PM 31.9667 -92.8303 115° Southeast 491 565 37,000  Level Houston Center
10:14PM 31.9075 -92.6806 115° Southeast 491 565 37,000  Level Houston Center
10:15PM 31.8500 -92.5333 114° Southeast 491 565 37,000  Level Houston Center
10:16PM 31.7967 -92.3936 116° Southeast 483 556 37,000  Level Houston Center
10:17PM 31.7369 -92.2492 115° Southeast 483 556 37,000  Level Houston Center
10:18PM 31.6789 -92.1025 115° Southeast 488 562 37,000  Level Houston Center
10:19PM 31.6211 -91.9561 115° Southeast 488 562 37,000  Level Houston Center
10:20PM 31.5628 -91.8119 116° Southeast 488 562 37,000  Level Houston Center
10:21PM 31.5044 -91.6708 116° Southeast 488 562 37,000  Level Houston Center
10:22PM 31.4397 -91.5150 116° Southeast 488 562 37,000  Level Houston Center
10:23PM 31.3811 -91.3717 115° Southeast 488 562 37,000  Level Houston Center
10:24PM 31.3222 -91.2261 117° Southeast 488 562 37,000  Level Houston Center
10:25PM 31.2675 -91.1025 116° Southeast 483 556 37,000  Level Houston Center
10:26PM 31.2106 -90.9644 116° Southeast 478 550 37,000  Level Houston Center
10:27PM 31.1514 -90.8242 116° Southeast 478 550 37,000 -240 Level Houston Center
10:28PM 31.0942 -90.6864 116° Southeast 473 544 36,600 -1,680 Descending Houston Center
10:29PM 31.0347 -90.5442 116° Southeast 478 550 33,700 -2,940 Descending Houston Center
10:30PM 30.9792 -90.4092 116° Southeast 472 543 30,800 -3,000 Descending Houston Center
10:31PM 30.9236 -90.2742 117° Southeast 467 537 27,800 -3,000 Descending Houston Center
10:32PM 30.8681 -90.1467 116° Southeast 453 521 24,900 -2,940 Descending Houston Center
10:33PM 30.8164 -90.0242 116° Southeast 432 497 21,900 -3,000 Descending Houston Center
10:34PM 30.7669 -89.9042 117° Southeast 420 483 18,900 -3,180 Descending Houston Center
10:35PM 30.7175 -89.7892 114° Southeast 408 470 15,700 -3,480 Descending Houston Center
10:36PM 30.6719 -89.6692 113° Southeast 401 461 12,100 -2,640 Descending Houston Center
10:37PM 30.6328 -89.5614 113° Southeast 390 449 10,500 -1,260 Descending Houston Center
10:38PM 30.6000 -89.4706 112° Southeast 348 400 9,600 -1,500 Descending Houston Center
10:39PM 30.5694 -89.3844 114° Southeast 306 352 7,600 -2,100 Descending Houston Center
10:40PM 30.5386 -89.3031 113° Southeast 287 330 5,500 -2,040 Descending Houston Center
10:41PM 30.5103 -89.2242 113° Southeast 273 314 3,500 -2,040 Descending Houston Center